Terminal Aerodrome Forecast
Issued by NWS

Home | Current Version | Previous Version | Text Only | Print | Product List | Glossary On
Versions: 1 2 3 4 5 6 7 8 9 10 11 12 13 14
659
FTUS41 KLWX 251735
TAFMTN
TAF
KMTN 251735Z 2518/2618 12005KT P6SM OVC250
     FM252300 13004KT P6SM OVC050
     FM260100 11005KT 5SM BR OVC030
     FM260200 10006KT 4SM BR OVC015
     FM260300 09007KT 3SM BR OVC008
     FM260900 09008KT 3SM BR OVC003
     FM261200 09008KT 3SM BR OVC008=

USA.gov is the U.S. government's official web portal to all federal, state and local government web resources and services.